createdAt,value
2018-01-30T00:00:44.945Z,1.70
2018-01-30T00:03:11.162Z,1.30
2018-01-30T00:05:37.416Z,2.70
2018-01-30T00:08:03.592Z,2.50
2018-01-30T00:10:29.795Z,1.33
2018-01-30T00:12:56.715Z,1.87
2018-01-30T00:15:23.722Z,1.87
2018-01-30T00:17:49.894Z,2.17
2018-01-30T00:20:16.092Z,1.80
2018-01-30T00:22:42.286Z,1.90
2018-01-30T00:25:08.435Z,2.10
2018-01-30T00:27:34.611Z,1.50
2018-01-30T00:30:00.840Z,1.87
2018-01-30T00:32:26.990Z,1.93
2018-01-30T00:34:53.975Z,2.17
2018-01-30T00:37:20.140Z,1.50
2018-01-30T00:39:46.293Z,1.80
2018-01-30T00:42:13.226Z,3.03
2018-01-30T00:44:40.160Z,2.13
2018-01-30T00:47:07.096Z,2.00
2018-01-30T00:49:33.286Z,5.40
2018-01-30T00:51:59.475Z,2.30
2018-01-30T00:54:26.354Z,2.10
2018-01-30T00:56:52.532Z,4.73
2018-01-30T00:59:18.751Z,2.37
2018-01-30T01:01:45.718Z,2.70
2018-01-30T01:04:12.718Z,2.17
2018-01-30T01:06:38.934Z,1.20
2018-01-30T01:09:05.158Z,1.43
2018-01-30T01:11:31.393Z,1.37
2018-01-30T01:13:57.616Z,1.70
2018-01-30T01:16:23.814Z,1.40
2018-01-30T01:18:49.934Z,1.33
2018-01-30T01:21:16.912Z,1.40
2018-01-30T01:23:43.127Z,2.13
2018-01-30T01:26:09.292Z,1.33
2018-01-30T01:28:35.448Z,1.50
2018-01-30T01:31:01.703Z,1.67
2018-01-30T01:33:27.957Z,1.57
2018-01-30T01:35:54.155Z,4.40
2018-01-30T01:38:20.337Z,2.47
2018-01-30T01:40:46.484Z,2.07
2018-01-30T01:43:12.645Z,2.83
2018-01-30T01:45:38.810Z,2.37
2018-01-30T01:48:05.005Z,2.00
2018-01-30T01:50:31.186Z,1.70
2018-01-30T01:52:57.383Z,1.73
2018-01-30T01:55:23.552Z,1.97
2018-01-30T01:57:50.460Z,5.60
2018-01-30T02:00:16.622Z,2.03
2018-01-30T02:02:43.623Z,8.03
2018-01-30T02:05:09.814Z,1.40
2018-01-30T02:07:37.009Z,2.00
2018-01-30T02:10:03.285Z,1.60
2018-01-30T02:12:30.139Z,1.57
2018-01-30T02:14:56.335Z,1.37
2018-01-30T02:17:22.573Z,1.40
2018-01-30T02:19:49.546Z,2.10
2018-01-30T02:22:15.724Z,1.40
2018-01-30T02:24:41.867Z,1.20
2018-01-30T02:27:08.122Z,1.00
2018-01-30T02:29:34.220Z,1.23
2018-01-30T02:32:00.367Z,1.10
2018-01-30T02:34:27.291Z,1.10
2018-01-30T02:36:53.498Z,2.60
2018-01-30T02:39:19.703Z,1.00
2018-01-30T02:41:45.903Z,2.30
2018-01-30T02:44:12.052Z,1.43
2018-01-30T02:46:38.198Z,0.80
2018-01-30T02:49:04.383Z,1.03
2018-01-30T02:51:30.555Z,3.60
2018-01-30T02:53:56.720Z,0.80
2018-01-30T02:56:23.657Z,3.23
2018-01-30T02:58:50.545Z,0.97
2018-01-30T03:01:16.746Z,1.00
2018-01-30T03:03:43.647Z,0.90
2018-01-30T03:06:09.835Z,0.80
2018-01-30T03:08:36.010Z,1.90
2018-01-30T03:11:02.290Z,0.70
2018-01-30T03:13:28.527Z,1.40
2018-01-30T03:15:54.670Z,1.13
2018-01-30T03:18:20.858Z,0.60
2018-01-30T03:20:47.800Z,0.60
2018-01-30T03:23:14.716Z,2.10
2018-01-30T03:25:40.954Z,1.60
2018-01-30T03:28:07.155Z,0.50
2018-01-30T03:30:33.331Z,6.20
2018-01-30T03:32:59.556Z,0.50
2018-01-30T03:35:26.521Z,2.83
2018-01-30T03:37:52.738Z,0.60
2018-01-30T03:40:18.957Z,1.70
2018-01-30T03:42:45.833Z,0.60
2018-01-30T03:45:12.009Z,1.33
2018-01-30T03:47:38.155Z,0.50
2018-01-30T03:50:05.062Z,2.03
2018-01-30T03:52:32.031Z,0.60
2018-01-30T03:54:58.980Z,0.60
2018-01-30T03:57:25.946Z,0.60
2018-01-30T03:59:52.106Z,1.27
2018-01-30T04:02:18.290Z,1.50
2018-01-30T04:04:45.195Z,0.70
2018-01-30T04:07:11.358Z,1.03
2018-01-30T04:09:38.307Z,0.87
2018-01-30T04:12:05.211Z,0.57
2018-01-30T04:14:31.393Z,0.60
2018-01-30T04:16:57.626Z,0.50
2018-01-30T04:19:23.768Z,0.70
2018-01-30T04:21:49.949Z,0.60
2018-01-30T04:24:16.889Z,0.60
2018-01-30T04:26:43.852Z,0.53
2018-01-30T04:29:10.816Z,2.03
2018-01-30T04:31:36.986Z,2.03
2018-01-30T04:34:03.187Z,3.50
2018-01-30T04:36:29.374Z,1.00
2018-01-30T04:38:56.324Z,1.77
2018-01-30T04:41:23.231Z,0.83
2018-01-30T04:43:49.394Z,0.70
2018-01-30T04:46:16.382Z,3.13
2018-01-30T04:48:42.589Z,1.70
2018-01-30T04:51:08.818Z,0.60
2018-01-30T04:53:34.955Z,0.70
2018-01-30T04:56:01.207Z,0.60
2018-01-30T04:58:27.423Z,0.83
2018-01-30T05:00:53.647Z,0.83
2018-01-30T05:03:19.885Z,2.40
2018-01-30T05:05:46.105Z,3.23
2018-01-30T05:08:12.216Z,1.73
2018-01-30T05:10:39.099Z,1.60
2018-01-30T05:13:05.242Z,0.80
2018-01-30T05:15:31.454Z,1.00
2018-01-30T05:17:57.640Z,1.80
2018-01-30T05:20:23.886Z,5.03
2018-01-30T05:22:50.033Z,36.77
2018-01-30T05:25:16.297Z,5.33
2018-01-30T05:27:43.209Z,0.97
2018-01-30T05:30:09.459Z,3.13
2018-01-30T05:32:36.456Z,1.20
2018-01-30T05:35:02.635Z,1.73
2018-01-30T05:37:29.546Z,1.50
2018-01-30T05:39:55.831Z,1.23
2018-01-30T05:42:22.024Z,2.90
2018-01-30T05:44:48.292Z,0.90
2018-01-30T05:47:14.524Z,2.03
2018-01-30T05:49:40.725Z,1.83
2018-01-30T05:52:07.704Z,1.17
2018-01-30T05:54:33.888Z,1.27
2018-01-30T05:57:00.092Z,1.20
2018-01-30T05:59:26.241Z,3.70
2018-01-30T06:01:52.407Z,1.33
2018-01-30T06:04:28.928Z,2.77
2018-01-30T06:06:55.241Z,5.30
2018-01-30T06:09:21.495Z,1.40
2018-01-30T06:11:47.978Z,2.60
2018-01-30T06:14:14.191Z,3.00
2018-01-30T06:16:40.328Z,1.10
2018-01-30T06:19:06.590Z,1.43
2018-01-30T06:21:32.832Z,2.20
2018-01-30T06:23:58.972Z,1.63
2018-01-30T06:26:25.235Z,2.73
2018-01-30T06:28:51.472Z,3.67
2018-01-30T06:31:17.699Z,4.93
2018-01-30T06:33:43.883Z,3.47
2018-01-30T06:36:10.029Z,3.40
2018-01-30T06:38:36.943Z,5.20
2018-01-30T06:41:03.077Z,2.50
2018-01-30T06:43:29.319Z,5.60
2018-01-30T06:45:56.258Z,4.10
2018-01-30T06:48:23.237Z,3.23
2018-01-30T06:50:49.438Z,2.67
2018-01-30T06:53:16.336Z,2.40
2018-01-30T06:55:42.611Z,1.90
2018-01-30T06:58:09.495Z,1.83
2018-01-30T07:00:35.735Z,1.67
2018-01-30T07:03:01.929Z,3.50
2018-01-30T07:05:28.083Z,3.43
2018-01-30T07:07:54.298Z,1.40
2018-01-30T07:10:20.492Z,1.60
2018-01-30T07:12:47.426Z,6.53
2018-01-30T07:15:14.375Z,1.87
2018-01-30T07:17:41.248Z,2.60
2018-01-30T07:20:07.469Z,2.47
2018-01-30T07:22:33.691Z,4.27
2018-01-30T07:25:00.634Z,7.27
2018-01-30T07:27:27.557Z,10.60
2018-01-30T07:29:53.761Z,28.27
2018-01-30T07:32:20.731Z,12.27
2018-01-30T07:34:46.912Z,9.93
2018-01-30T07:37:13.059Z,10.40
2018-01-30T07:39:39.293Z,9.40
2018-01-30T07:42:05.527Z,4.40
2018-01-30T07:44:31.698Z,5.53
2018-01-30T07:46:58.676Z,5.60
2018-01-30T07:49:24.896Z,4.40
2018-01-30T07:51:51.115Z,3.30
2018-01-30T07:54:25.166Z,3.50
2018-01-30T07:56:51.399Z,4.73
2018-01-30T07:59:17.651Z,6.10
2018-01-30T08:01:44.620Z,3.93
2018-01-30T08:04:10.796Z,4.63
2018-01-30T08:06:36.967Z,5.20
2018-01-30T08:09:03.289Z,8.33
2018-01-30T08:11:30.228Z,3.83
2018-01-30T08:13:57.194Z,4.73
2018-01-30T08:16:23.414Z,3.93
2018-01-30T08:18:49.614Z,4.13
2018-01-30T08:21:15.812Z,4.63
2018-01-30T08:23:41.981Z,6.97
2018-01-30T08:26:08.937Z,4.87
2018-01-30T08:28:35.867Z,4.67
2018-01-30T08:31:02.049Z,6.60
2018-01-30T08:33:28.166Z,5.60
2018-01-30T08:35:54.351Z,8.13
2018-01-30T08:38:20.472Z,4.43
2018-01-30T08:40:46.665Z,7.60
2018-01-30T08:43:12.895Z,5.47
2018-01-30T08:45:39.142Z,6.20
2018-01-30T08:48:05.345Z,4.10
2018-01-30T08:50:31.577Z,6.90
2018-01-30T08:52:57.737Z,9.67
2018-01-30T08:55:23.936Z,5.10
2018-01-30T08:57:50.185Z,3.67
2018-01-30T09:00:16.402Z,4.63
2018-01-30T09:02:42.686Z,3.93
2018-01-30T09:05:08.880Z,4.03
2018-01-30T09:07:35.100Z,4.80
2018-01-30T09:10:01.271Z,3.50
2018-01-30T09:12:27.447Z,3.80
2018-01-30T09:14:53.644Z,3.33
2018-01-30T09:17:19.906Z,3.80
2018-01-30T09:19:46.074Z,2.70
2018-01-30T09:22:13.075Z,8.03
2018-01-30T09:24:39.305Z,3.07
2018-01-30T09:27:05.492Z,4.70
2018-01-30T09:29:31.636Z,5.90
2018-01-30T09:31:57.859Z,3.43
2018-01-30T09:34:24.062Z,3.77
2018-01-30T09:36:50.269Z,7.77
2018-01-30T09:39:17.212Z,3.13
2018-01-30T09:41:44.178Z,2.23
2018-01-30T09:44:10.401Z,3.90
2018-01-30T09:46:37.350Z,8.10
2018-01-30T09:49:03.545Z,2.17
2018-01-30T09:51:29.758Z,4.10
2018-01-30T09:53:55.936Z,2.53
2018-01-30T09:56:22.195Z,2.60
2018-01-30T09:58:48.402Z,3.70
2018-01-30T10:01:14.549Z,4.50
2018-01-30T10:03:40.735Z,5.53
2018-01-30T10:06:07.717Z,3.30
2018-01-30T10:08:33.934Z,7.10
2018-01-30T10:11:00.122Z,2.90
2018-01-30T10:13:27.055Z,8.60
2018-01-30T10:15:54.003Z,1.90
2018-01-30T10:18:20.196Z,2.03
2018-01-30T10:20:46.439Z,3.00
2018-01-30T10:23:12.645Z,8.00
2018-01-30T10:25:38.891Z,6.30
2018-01-30T10:28:05.085Z,3.40
2018-01-30T10:30:31.244Z,2.90
2018-01-30T10:32:57.440Z,8.30
2018-01-30T10:35:23.670Z,2.73
2018-01-30T10:37:49.846Z,3.87
2018-01-30T10:40:16.744Z,4.30
2018-01-30T10:42:42.913Z,3.10
2018-01-30T10:45:09.094Z,4.00
2018-01-30T10:47:35.308Z,3.93
2018-01-30T10:50:01.556Z,6.50
2018-01-30T10:52:27.830Z,2.60
2018-01-30T10:54:53.992Z,4.37
2018-01-30T10:57:20.894Z,3.53
2018-01-30T10:59:47.050Z,4.30
2018-01-30T11:02:14.019Z,5.13
2018-01-30T11:04:40.251Z,3.10
2018-01-30T11:07:06.429Z,5.07
2018-01-30T11:09:32.589Z,4.80
2018-01-30T11:11:59.550Z,9.10
2018-01-30T11:14:25.792Z,2.83
2018-01-30T11:16:52.051Z,2.97
2018-01-30T11:19:18.297Z,5.40
2018-01-30T11:21:44.428Z,6.07
2018-01-30T11:24:11.393Z,1.97
2018-01-30T11:26:38.310Z,6.23
2018-01-30T11:29:04.550Z,2.10
2018-01-30T11:31:31.470Z,2.53
2018-01-30T11:33:57.671Z,7.27
2018-01-30T11:36:23.842Z,3.13
2018-01-30T11:38:50.059Z,3.17
2018-01-30T11:41:16.197Z,2.23
2018-01-30T11:43:42.393Z,4.13
2018-01-30T11:46:08.559Z,4.10
2018-01-30T11:48:34.786Z,1.80
2018-01-30T11:51:00.909Z,4.30
2018-01-30T11:53:27.137Z,2.80
2018-01-30T11:55:54.066Z,2.03
2018-01-30T11:58:20.266Z,4.97
2018-01-30T12:00:46.505Z,2.83
2018-01-30T12:03:12.660Z,2.90
2018-01-30T12:05:38.845Z,4.77
2018-01-30T12:08:05.043Z,6.70
2018-01-30T12:10:31.967Z,3.80
2018-01-30T12:12:58.894Z,4.50
2018-01-30T12:15:25.078Z,2.33
2018-01-30T12:17:51.257Z,2.93
2018-01-30T12:20:17.502Z,4.83
2018-01-30T12:22:44.439Z,3.03
2018-01-30T12:25:11.324Z,3.77
2018-01-30T12:27:37.547Z,2.33
2018-01-30T12:30:03.767Z,8.40
2018-01-30T12:32:29.965Z,7.27
2018-01-30T12:34:56.860Z,5.63
2018-01-30T12:37:24.043Z,7.33
2018-01-30T12:39:50.272Z,5.20
2018-01-30T12:42:17.654Z,2.23
2018-01-30T12:44:44.693Z,4.63
2018-01-30T12:47:11.630Z,2.87
2018-01-30T12:49:37.847Z,5.60
2018-01-30T12:52:04.879Z,6.13
2018-01-30T12:54:31.058Z,6.30
2018-01-30T12:56:58.064Z,4.20
2018-01-30T12:59:24.242Z,12.43
2018-01-30T13:01:50.443Z,2.80
2018-01-30T13:04:17.428Z,2.30
2018-01-30T13:06:43.651Z,5.93
2018-01-30T13:09:09.877Z,3.43
2018-01-30T13:11:36.055Z,4.03
2018-01-30T13:14:02.240Z,2.80
2018-01-30T13:16:28.457Z,5.27
2018-01-30T13:18:54.625Z,5.40
2018-01-30T13:21:20.839Z,6.47
2018-01-30T13:23:47.043Z,4.40
2018-01-30T13:26:13.256Z,2.43
2018-01-30T13:28:39.479Z,3.17
2018-01-30T13:31:05.717Z,2.40
2018-01-30T13:33:31.944Z,5.43
2018-01-30T13:35:58.878Z,2.53
2018-01-30T13:38:25.835Z,5.20
2018-01-30T13:40:52.010Z,5.40
2018-01-30T13:43:18.184Z,3.37
2018-01-30T13:45:45.166Z,2.80
2018-01-30T13:48:11.302Z,1.30
2018-01-30T13:50:37.522Z,6.20
2018-01-30T13:53:03.745Z,2.80
2018-01-30T13:55:29.910Z,16.13
2018-01-30T13:57:56.096Z,3.00
2018-01-30T14:00:22.305Z,4.67
2018-01-30T14:02:48.519Z,2.73
2018-01-30T14:05:16.061Z,3.50
2018-01-30T14:07:42.252Z,4.33
2018-01-30T14:10:08.448Z,4.03
2018-01-30T14:12:34.627Z,2.50
2018-01-30T14:15:00.777Z,1.63
2018-01-30T14:17:27.752Z,3.30
2018-01-30T14:19:53.968Z,3.17
2018-01-30T14:22:20.233Z,3.13
2018-01-30T14:24:46.380Z,12.40
2018-01-30T14:27:12.513Z,1.53
2018-01-30T14:29:38.707Z,1.90
2018-01-30T14:32:04.892Z,2.80
2018-01-30T14:34:31.787Z,4.17
2018-01-30T14:36:58.039Z,2.90
2018-01-30T14:39:24.292Z,10.40
2018-01-30T14:41:51.282Z,3.33
2018-01-30T14:44:18.520Z,2.50
2018-01-30T14:46:44.697Z,3.03
2018-01-30T14:49:10.883Z,4.70
2018-01-30T14:51:37.025Z,2.60
2018-01-30T14:54:03.206Z,2.83
2018-01-30T14:56:30.205Z,6.30
2018-01-30T14:58:56.328Z,6.30
2018-01-30T15:01:22.528Z,4.67
2018-01-30T15:03:48.716Z,5.07
2018-01-30T15:06:14.897Z,6.73
2018-01-30T15:08:41.165Z,2.50
2018-01-30T15:11:07.385Z,6.40
2018-01-30T15:13:33.557Z,5.07
2018-01-30T15:15:59.789Z,2.53
2018-01-30T15:18:26.016Z,2.00
2018-01-30T15:20:52.277Z,2.33
2018-01-30T15:23:18.469Z,4.30
2018-01-30T15:25:44.647Z,6.03
2018-01-30T15:28:10.807Z,3.20
2018-01-30T15:30:37.765Z,8.13
2018-01-30T15:33:03.911Z,2.97
2018-01-30T15:35:30.092Z,3.47
2018-01-30T15:37:56.296Z,3.43
2018-01-30T15:40:22.551Z,2.30
2018-01-30T15:42:49.475Z,7.67
2018-01-30T15:45:15.634Z,2.93
2018-01-30T15:47:43.431Z,4.90
2018-01-30T15:50:09.568Z,2.47
2018-01-30T15:52:35.769Z,3.43
2018-01-30T15:55:01.960Z,4.97
2018-01-30T15:57:28.132Z,7.50
2018-01-30T15:59:54.348Z,9.00
2018-01-30T16:02:20.691Z,7.33
2018-01-30T16:04:46.878Z,4.13
2018-01-30T16:07:13.066Z,9.27
2018-01-30T16:09:39.206Z,6.90
2018-01-30T16:12:05.449Z,14.73
2018-01-30T16:14:31.564Z,4.20
2018-01-30T16:16:57.740Z,5.50
2018-01-30T16:19:23.953Z,3.70
2018-01-30T16:21:50.865Z,4.40
2018-01-30T16:24:17.044Z,11.33
2018-01-30T16:26:43.240Z,6.67
2018-01-30T16:29:10.219Z,3.50
2018-01-30T16:31:36.416Z,2.57
2018-01-30T16:34:03.321Z,4.23
2018-01-30T16:36:29.557Z,11.10
2018-01-30T16:38:55.770Z,37.20
2018-01-30T16:41:22.006Z,5.37
2018-01-30T16:43:48.229Z,5.43
2018-01-30T16:46:14.392Z,4.30
2018-01-30T16:48:41.457Z,6.70
2018-01-30T16:51:08.442Z,45.40
2018-01-30T16:53:34.622Z,7.70
2018-01-30T16:56:00.804Z,7.93
2018-01-30T16:58:27.039Z,6.73
2018-01-30T17:00:53.211Z,2.70
2018-01-30T17:03:20.170Z,4.60
2018-01-30T17:05:46.339Z,4.70
2018-01-30T17:08:12.514Z,5.23
2018-01-30T17:10:39.450Z,4.10
2018-01-30T17:13:05.667Z,12.77
2018-01-30T17:15:31.868Z,4.17
2018-01-30T17:17:58.077Z,5.00
2018-01-30T17:20:24.267Z,4.80
2018-01-30T17:22:51.184Z,4.93
2018-01-30T17:25:17.365Z,6.33
2018-01-30T17:27:43.537Z,6.80
2018-01-30T17:30:09.779Z,7.07
2018-01-30T17:32:35.954Z,6.23
2018-01-30T17:35:02.156Z,7.53
2018-01-30T17:37:28.685Z,4.00
2018-01-30T17:39:54.919Z,5.53
2018-01-30T17:42:21.854Z,3.40
2018-01-30T17:44:48.034Z,7.10
2018-01-30T17:47:14.179Z,16.73
2018-01-30T17:49:40.322Z,10.53
2018-01-30T17:52:07.310Z,13.30
2018-01-30T17:54:33.498Z,20.80
2018-01-30T17:56:59.650Z,34.20
2018-01-30T17:59:26.639Z,26.03
2018-01-30T18:01:52.808Z,20.63
2018-01-30T18:04:19.808Z,20.53
2018-01-30T18:06:45.995Z,15.43
2018-01-30T18:09:12.957Z,13.23
2018-01-30T18:11:39.096Z,19.33
2018-01-30T18:14:05.333Z,15.60
2018-01-30T18:16:31.492Z,7.30
2018-01-30T18:18:58.427Z,4.53
2018-01-30T18:21:24.575Z,4.50
2018-01-30T18:23:50.831Z,3.60
2018-01-30T18:26:16.998Z,3.70
2018-01-30T18:28:43.190Z,4.53
2018-01-30T18:31:09.691Z,7.23
2018-01-30T18:33:35.898Z,4.57
2018-01-30T18:36:02.109Z,6.50
2018-01-30T18:38:28.300Z,10.20
2018-01-30T18:40:54.462Z,9.20
2018-01-30T18:43:20.627Z,14.13
2018-01-30T18:45:46.869Z,16.97
2018-01-30T18:48:13.867Z,11.40
2018-01-30T18:50:40.071Z,17.00
2018-01-30T18:53:06.246Z,13.23
2018-01-30T18:55:32.458Z,7.37
2018-01-30T18:57:58.701Z,18.77
2018-01-30T19:00:24.950Z,11.70
2018-01-30T19:02:51.132Z,17.87
2018-01-30T19:05:17.323Z,14.60
2018-01-30T19:07:44.283Z,13.13
2018-01-30T19:10:10.482Z,19.37
2018-01-30T19:12:37.442Z,15.47
2018-01-30T19:15:03.716Z,13.47
2018-01-30T19:17:29.944Z,7.00
2018-01-30T19:19:56.159Z,14.53
2018-01-30T19:22:22.331Z,10.70
2018-01-30T19:24:49.280Z,12.63
2018-01-30T19:27:15.524Z,13.80
2018-01-30T19:29:42.455Z,12.57
2018-01-30T19:32:09.389Z,14.37
2018-01-30T19:34:36.406Z,17.93
2018-01-30T19:37:02.616Z,17.17
2018-01-30T19:39:28.845Z,20.00
2018-01-30T19:41:55.031Z,19.40
2018-01-30T19:44:21.974Z,38.13
2018-01-30T19:46:48.910Z,40.53
2018-01-30T19:49:15.123Z,29.50
2018-01-30T19:51:41.336Z,15.30
2018-01-30T19:54:07.561Z,16.13
2018-01-30T19:56:33.717Z,16.50
2018-01-30T19:59:00.035Z,21.07
2018-01-30T20:01:26.273Z,20.17
2018-01-30T20:03:53.198Z,22.03
2018-01-30T20:06:19.452Z,29.77
2018-01-30T20:08:45.609Z,27.73
2018-01-30T20:11:11.770Z,27.80
2018-01-30T20:13:37.965Z,24.40
2018-01-30T20:16:04.210Z,24.87
2018-01-30T20:18:30.356Z,22.90
2018-01-30T20:20:56.547Z,24.40
2018-01-30T20:23:24.256Z,26.47
2018-01-30T20:25:50.487Z,33.93
2018-01-30T20:28:16.692Z,29.03
2018-01-30T20:30:42.950Z,30.77
2018-01-30T20:33:09.284Z,28.43
2018-01-30T20:35:36.974Z,33.13
2018-01-30T20:38:03.946Z,32.13
2018-01-30T20:40:30.259Z,23.73
2018-01-30T20:42:57.230Z,31.90
2018-01-30T20:45:23.411Z,17.50
2018-01-30T20:47:50.438Z,17.10
2018-01-30T20:50:16.684Z,20.13
2018-01-30T20:52:42.948Z,15.93
2018-01-30T20:55:09.165Z,23.03
2018-01-30T20:57:36.202Z,24.63
2018-01-30T21:00:03.181Z,26.40
2018-01-30T21:02:29.308Z,21.57
2018-01-30T21:04:55.461Z,26.70
2018-01-30T21:07:22.418Z,30.53
2018-01-30T21:09:48.648Z,27.53
2018-01-30T21:12:14.893Z,29.90
2018-01-30T21:14:41.833Z,29.93
2018-01-30T21:17:08.731Z,22.60
2018-01-30T21:19:34.903Z,22.50
2018-01-30T21:22:01.829Z,15.10
2018-01-30T21:24:27.996Z,17.30
2018-01-30T21:26:54.938Z,14.33
2018-01-30T21:29:21.849Z,10.33
2018-01-30T21:31:48.011Z,13.90
2018-01-30T21:34:14.967Z,11.60
2018-01-30T21:36:41.304Z,13.77
2018-01-30T21:39:07.481Z,9.17
2018-01-30T21:41:33.688Z,11.30
2018-01-30T21:43:59.860Z,12.73
2018-01-30T21:46:26.025Z,21.43
2018-01-30T21:48:52.213Z,14.93
2018-01-30T21:51:20.935Z,10.53
2018-01-30T21:53:47.095Z,11.40
2018-01-30T21:56:13.324Z,16.67
2018-01-30T21:58:39.566Z,11.30
2018-01-30T22:01:20.231Z,10.90
2018-01-30T22:03:47.414Z,15.50
2018-01-30T22:06:14.357Z,14.23
2018-01-30T22:08:41.271Z,15.27
2018-01-30T22:11:07.526Z,15.03
2018-01-30T22:13:34.475Z,17.87
2018-01-30T22:16:01.438Z,19.47
2018-01-30T22:18:27.622Z,20.33
2018-01-30T22:20:53.813Z,17.70
2018-01-30T22:23:20.071Z,17.83
2018-01-30T22:25:46.314Z,19.17
2018-01-30T22:28:12.431Z,18.23
2018-01-30T22:30:38.682Z,15.30
2018-01-30T22:33:05.653Z,14.97
2018-01-30T22:35:31.886Z,15.73
2018-01-30T22:37:58.063Z,15.93
2018-01-30T22:40:24.308Z,17.37
2018-01-30T22:42:50.467Z,16.30
2018-01-30T22:45:16.687Z,14.53
